sensor_id;sensor_type;location;lat;lon;timestamp;pressure;altitude;pressure_sealevel;temperature;humidity
22018;BME280;11173;51.050;7.108;2023-04-26T00:08:19;67552.56;;;-149.45;100.00
22018;BME280;11173;51.050;7.108;2023-04-26T00:18:19;67552.56;;;-149.45;100.00
22018;BME280;11173;51.050;7.108;2023-04-26T00:28:20;67552.56;;;-149.45;100.00
22018;BME280;11173;51.050;7.108;2023-04-26T00:38:20;67552.56;;;-149.45;100.00
22018;BME280;11173;51.050;7.108;2023-04-26T00:48:21;67552.56;;;-149.45;100.00
22018;BME280;11173;51.050;7.108;2023-04-26T00:58:21;67552.56;;;-149.45;100.00
22018;BME280;11173;51.050;7.108;2023-04-26T01:08:22;67552.56;;;-149.45;100.00
22018;BME280;11173;51.050;7.108;2023-04-26T01:18:23;67552.56;;;-149.45;100.00
22018;BME280;11173;51.050;7.108;2023-04-26T01:28:24;67552.56;;;-149.45;100.00
22018;BME280;11173;51.050;7.108;2023-04-26T01:38:25;67552.56;;;-149.45;100.00
22018;BME280;11173;51.050;7.108;2023-04-26T01:48:25;67552.56;;;-149.45;100.00
22018;BME280;11173;51.050;7.108;2023-04-26T01:58:26;67552.56;;;-149.45;100.00
22018;BME280;11173;51.050;7.108;2023-04-26T02:08:26;67552.56;;;-149.45;100.00
22018;BME280;11173;51.050;7.108;2023-04-26T02:18:27;67552.56;;;-149.45;100.00
22018;BME280;11173;51.050;7.108;2023-04-26T02:28:29;67552.56;;;-149.45;100.00
22018;BME280;11173;51.050;7.108;2023-04-26T02:38:29;67552.56;;;-149.45;100.00
22018;BME280;11173;51.050;7.108;2023-04-26T02:48:30;67552.56;;;-149.45;100.00
22018;BME280;11173;51.050;7.108;2023-04-26T02:58:30;67552.56;;;-149.45;100.00
22018;BME280;11173;51.050;7.108;2023-04-26T03:08:31;67552.56;;;-149.45;100.00
22018;BME280;11173;51.050;7.108;2023-04-26T03:18:34;67552.56;;;-149.45;100.00
22018;BME280;11173;51.050;7.108;2023-04-26T03:28:35;67552.56;;;-149.45;100.00
22018;BME280;11173;51.050;7.108;2023-04-26T03:38:35;67552.56;;;-149.45;100.00
22018;BME280;11173;51.050;7.108;2023-04-26T03:48:36;67552.56;;;-149.45;100.00
22018;BME280;11173;51.050;7.108;2023-04-26T03:58:36;67552.56;;;-149.45;100.00
22018;BME280;11173;51.050;7.108;2023-04-26T04:08:37;67552.56;;;-149.45;100.00
22018;BME280;11173;51.050;7.108;2023-04-26T04:18:37;67552.56;;;-149.45;100.00
22018;BME280;11173;51.050;7.108;2023-04-26T04:28:39;67552.56;;;-149.45;100.00
22018;BME280;11173;51.050;7.108;2023-04-26T04:38:40;67552.56;;;-149.45;100.00
22018;BME280;11173;51.050;7.108;2023-04-26T04:48:41;67552.56;;;-149.45;100.00
22018;BME280;11173;51.050;7.108;2023-04-26T04:58:42;67552.56;;;-149.45;100.00
22018;BME280;11173;51.050;7.108;2023-04-26T05:08:42;67552.56;;;-149.45;100.00
22018;BME280;11173;51.050;7.108;2023-04-26T05:18:43;67552.56;;;-149.45;100.00
22018;BME280;11173;51.050;7.108;2023-04-26T05:28:44;67552.56;;;-149.45;100.00
22018;BME280;11173;51.050;7.108;2023-04-26T05:38:45;67552.56;;;-149.45;100.00
22018;BME280;11173;51.050;7.108;2023-04-26T05:48:45;99765.78;;;4.74;70.68
22018;BME280;11173;51.050;7.108;2023-04-26T05:58:46;99771.09;;;5.83;69.54
22018;BME280;11173;51.050;7.108;2023-04-26T06:08:46;99779.72;;;6.47;68.14
22018;BME280;11173;51.050;7.108;2023-04-26T06:18:47;99797.31;;;7.20;68.93
22018;BME280;11173;51.050;7.108;2023-04-26T06:28:47;99796.53;;;7.91;67.74
22018;BME280;11173;51.050;7.108;2023-04-26T06:38:48;99805.63;;;7.95;64.46
22018;BME280;11173;51.050;7.108;2023-04-26T06:48:48;99804.47;;;7.35;63.38
22018;BME280;11173;51.050;7.108;2023-04-26T07:09:01;99806.72;;;6.79;62.43
22018;BME280;11173;51.050;7.108;2023-04-26T07:19:02;99806.75;;;6.90;64.51
22018;BME280;11173;51.050;7.108;2023-04-26T07:29:03;99804.03;;;7.15;64.45
22018;BME280;11173;51.050;7.108;2023-04-26T07:39:03;99810.41;;;7.37;64.38
22018;BME280;11173;51.050;7.108;2023-04-26T07:49:08;99799.31;;;7.66;63.74
22018;BME280;11173;51.050;7.108;2023-04-26T07:59:09;99807.16;;;8.14;64.96
22018;BME280;11173;51.050;7.108;2023-04-26T08:09:10;99809.06;;;8.49;62.12
22018;BME280;11173;51.050;7.108;2023-04-26T08:19:10;99802.13;;;8.93;64.02
22018;BME280;11173;51.050;7.108;2023-04-26T08:29:11;99788.06;;;9.22;62.28
22018;BME280;11173;51.050;7.108;2023-04-26T08:39:11;99792.31;;;9.83;62.85
22018;BME280;11173;51.050;7.108;2023-04-26T08:59:24;99804.13;;;10.70;61.94
22018;BME280;11173;51.050;7.108;2023-04-26T09:09:27;99803.44;;;10.89;60.50
22018;BME280;11173;51.050;7.108;2023-04-26T09:19:36;99806.50;;;10.68;59.46
22018;BME280;11173;51.050;7.108;2023-04-26T09:29:37;99790.84;;;10.50;58.31
22018;BME280;11173;51.050;7.108;2023-04-26T09:39:40;99797.91;;;10.59;56.91
22018;BME280;11173;51.050;7.108;2023-04-26T09:49:46;99790.03;;;10.50;55.56
22018;BME280;11173;51.050;7.108;2023-04-26T09:59:50;99778.78;;;10.23;54.50
22018;BME280;11173;51.050;7.108;2023-04-26T10:09:52;99782.66;;;9.98;53.44
22018;BME280;11173;51.050;7.108;2023-04-26T10:19:55;99765.25;;;9.87;55.20
22018;BME280;11173;51.050;7.108;2023-04-26T10:50:31;99748.34;;;10.43;52.77
22018;BME280;11173;51.050;7.108;2023-04-26T11:00:32;99751.59;;;10.68;54.22
22018;BME280;11173;51.050;7.108;2023-04-26T11:10:32;99762.59;;;10.79;52.36
22018;BME280;11173;51.050;7.108;2023-04-26T11:20:33;99744.41;;;10.98;53.18
22018;BME280;11173;51.050;7.108;2023-04-26T11:30:34;99737.34;;;11.41;52.31
22018;BME280;11173;51.050;7.108;2023-04-26T11:40:34;99738.31;;;11.78;43.23
22018;BME280;11173;51.050;7.108;2023-04-26T11:50:37;99729.84;;;12.25;52.76
22018;BME280;11173;51.050;7.108;2023-04-26T12:01:00;99732.41;;;12.76;51.81
22018;BME280;11173;51.050;7.108;2023-04-26T12:11:03;99729.97;;;12.94;50.50
22018;BME280;11173;51.050;7.108;2023-04-26T12:21:04;99736.78;;;12.37;45.98
22018;BME280;11173;51.050;7.108;2023-04-26T12:31:04;99739.31;;;11.67;47.71
22018;BME280;11173;51.050;7.108;2023-04-26T12:41:05;99730.63;;;11.38;45.62
22018;BME280;11173;51.050;7.108;2023-04-26T12:51:06;99730.28;;;11.60;50.89
22018;BME280;11173;51.050;7.108;2023-04-26T13:01:06;99708.28;;;12.05;46.74
22018;BME280;11173;51.050;7.108;2023-04-26T13:11:07;99714.69;;;12.26;49.27
22018;BME280;11173;51.050;7.108;2023-04-26T13:21:07;99710.06;;;11.96;49.23
22018;BME280;11173;51.050;7.108;2023-04-26T13:31:08;99726.28;;;11.61;48.42
22018;BME280;11173;51.050;7.108;2023-04-26T13:41:08;99727.03;;;11.38;48.56
22018;BME280;11173;51.050;7.108;2023-04-26T13:51:12;99719.88;;;11.64;52.50
22018;BME280;11173;51.050;7.108;2023-04-26T14:01:14;99708.28;;;11.85;49.47
22018;BME280;11173;51.050;7.108;2023-04-26T14:11:14;99701.25;;;11.77;47.97
22018;BME280;11173;51.050;7.108;2023-04-26T14:21:15;99710.00;;;11.79;48.08
22018;BME280;11173;51.050;7.108;2023-04-26T14:31:15;99701.63;;;11.55;45.09
22018;BME280;11173;51.050;7.108;2023-04-26T14:41:18;99699.34;;;11.50;44.22
22018;BME280;11173;51.050;7.108;2023-04-26T14:51:18;99692.84;;;11.57;48.58
22018;BME280;11173;51.050;7.108;2023-04-26T15:01:19;99701.34;;;11.93;42.44
22018;BME280;11173;51.050;7.108;2023-04-26T15:11:19;99691.53;;;11.85;44.93
22018;BME280;11173;51.050;7.108;2023-04-26T15:21:20;99678.75;;;11.88;42.47
22018;BME280;11173;51.050;7.108;2023-04-26T15:31:20;99683.38;;;11.94;38.09
22018;BME280;11173;51.050;7.108;2023-04-26T15:41:21;99664.19;;;11.77;34.91
22018;BME280;11173;51.050;7.108;2023-04-26T15:51:22;99668.22;;;11.52;42.43
22018;BME280;11173;51.050;7.108;2023-04-26T16:01:22;99667.16;;;11.22;44.28
22018;BME280;11173;51.050;7.108;2023-04-26T16:11:23;99668.53;;;10.87;45.10
22018;BME280;11173;51.050;7.108;2023-04-26T16:21:25;99672.41;;;10.66;43.13
22018;BME280;11173;51.050;7.108;2023-04-26T16:31:26;99662.97;;;10.32;39.99
22018;BME280;11173;51.050;7.108;2023-04-26T16:41:26;99667.88;;;10.18;45.08
22018;BME280;11173;51.050;7.108;2023-04-26T16:51:27;99655.81;;;10.28;45.90
22018;BME280;11173;51.050;7.108;2023-04-26T17:01:27;99648.50;;;10.41;47.08
22018;BME280;11173;51.050;7.108;2023-04-26T17:11:28;99657.59;;;10.45;40.36
22018;BME280;11173;51.050;7.108;2023-04-26T17:21:28;99668.31;;;10.47;46.17
22018;BME280;11173;51.050;7.108;2023-04-26T17:31:29;99669.84;;;10.79;45.73
22018;BME280;11173;51.050;7.108;2023-04-26T17:41:29;99673.31;;;11.33;46.31
22018;BME280;11173;51.050;7.108;2023-04-26T17:51:30;99671.94;;;10.98;45.14
22018;BME280;11173;51.050;7.108;2023-04-26T18:01:30;99681.53;;;10.08;45.41
22018;BME280;11173;51.050;7.108;2023-04-26T18:11:31;99690.31;;;9.27;47.07
22018;BME280;11173;51.050;7.108;2023-04-26T18:21:31;99689.94;;;8.69;47.01
22018;BME280;11173;51.050;7.108;2023-04-26T18:31:32;99708.81;;;8.26;47.75
22018;BME280;11173;51.050;7.108;2023-04-26T18:41:33;99708.56;;;7.91;48.52
22018;BME280;11173;51.050;7.108;2023-04-26T18:51:34;99716.16;;;7.62;49.12
22018;BME280;11173;51.050;7.108;2023-04-26T19:01:34;99721.75;;;7.41;50.09
22018;BME280;11173;51.050;7.108;2023-04-26T19:11:35;99732.38;;;7.28;50.09
22018;BME280;11173;51.050;7.108;2023-04-26T19:21:35;99734.75;;;7.08;48.21
22018;BME280;11173;51.050;7.108;2023-04-26T19:31:36;99745.44;;;7.02;49.11
22018;BME280;11173;51.050;7.108;2023-04-26T19:41:36;99749.78;;;6.96;49.35
22018;BME280;11173;51.050;7.108;2023-04-26T19:51:37;99761.63;;;6.86;48.61
22018;BME280;11173;51.050;7.108;2023-04-26T20:01:37;99762.41;;;6.79;48.76
22018;BME280;11173;51.050;7.108;2023-04-26T20:11:38;99773.44;;;6.68;49.59
22018;BME280;11173;51.050;7.108;2023-04-26T20:21:38;99773.47;;;6.65;49.95
22018;BME280;11173;51.050;7.108;2023-04-26T20:31:38;99774.19;;;6.51;48.97
22018;BME280;11173;51.050;7.108;2023-04-26T20:41:39;99778.16;;;6.53;48.90
22018;BME280;11173;51.050;7.108;2023-04-26T20:51:42;99763.09;;;6.47;49.95
22018;BME280;11173;51.050;7.108;2023-04-26T21:01:42;99771.03;;;6.52;49.75
22018;BME280;11173;51.050;7.108;2023-04-26T21:11:43;99767.03;;;6.46;49.26
22018;BME280;11173;51.050;7.108;2023-04-26T21:21:43;99759.09;;;6.34;49.39
22018;BME280;11173;51.050;7.108;2023-04-26T21:31:44;99768.56;;;6.29;49.24
22018;BME280;11173;51.050;7.108;2023-04-26T21:41:44;99783.97;;;6.23;49.42
22018;BME280;11173;51.050;7.108;2023-04-26T21:51:44;99784.72;;;6.20;49.31
22018;BME280;11173;51.050;7.108;2023-04-26T22:01:45;99777.22;;;6.21;49.69
22018;BME280;11173;51.050;7.108;2023-04-26T22:11:45;99768.47;;;6.11;49.77
22018;BME280;11173;51.050;7.108;2023-04-26T22:21:46;99779.94;;;6.10;49.52
22018;BME280;11173;51.050;7.108;2023-04-26T22:31:46;99783.47;;;6.07;49.89
22018;BME280;11173;51.050;7.108;2023-04-26T22:41:47;99793.72;;;6.06;50.11
22018;BME280;11173;51.050;7.108;2023-04-26T22:51:47;99800.00;;;5.96;50.15
22018;BME280;11173;51.050;7.108;2023-04-26T23:01:47;99801.50;;;5.83;49.89
22018;BME280;11173;51.050;7.108;2023-04-26T23:11:48;99800.63;;;5.71;50.29
22018;BME280;11173;51.050;7.108;2023-04-26T23:21:48;99806.44;;;5.55;50.60
22018;BME280;11173;51.050;7.108;2023-04-26T23:31:48;99796.97;;;5.15;50.79
22018;BME280;11173;51.050;7.108;2023-04-26T23:41:49;67552.56;;;-149.45;100.00
22018;BME280;11173;51.050;7.108;2023-04-26T23:51:49;99796.97;;;5.15;50.79
